<?xml version="1.0" encoding="UTF-8" standalone="no" ?>
<gpx xmlns="http://www.topografix.com/GPX/1/1" xmlns:xsi="http://www.w3.org/2001/XMLSchema-instance" xsi:schemaLocation="http://www.topografix.com/GPX/1/1 http://www.topografix.com/GPX/1/1/gpx.xsd" version="1.1" creator="VisuGPX - https://www.visugpx.com">
  <metadata>
    <name>Séguret : Bois de la Peyre</name>
    <desc><![CDATA[Boucle sans difficultés jusqu'à Sainte-Catherine à Vaison-la-Romaine.]]></desc>
  </metadata>
  <trk>
    <name><![CDATA[20181006193817-1c8Mh]]></name>
    <trkseg>
      <trkpt lat="44.20798" lon="5.02424">
        <ele>262</ele>
        <time>2018-09-02T14:14:48 02:00</time>
      </trkpt>
      <trkpt lat="44.20812" lon="5.02486">
        <ele>263</ele>
        <time>2018-09-02T14:14:53 02:00</time>
      </trkpt>
      <trkpt lat="44.20821" lon="5.02525">
        <ele>262</ele>
        <time>2018-09-02T14:14:58 02:00</time>
      </trkpt>
      <trkpt lat="44.20828" lon="5.02571">
        <ele>261</ele>
        <time>2018-09-02T14:15:03 02:00</time>
      </trkpt>
      <trkpt lat="44.20838" lon="5.02683">
        <ele>263</ele>
        <time>2018-09-02T14:15:08 02:00</time>
      </trkpt>
      <trkpt lat="44.20848" lon="5.02708">
        <ele>266</ele>
        <time>2018-09-02T14:15:13 02:00</time>
      </trkpt>
      <trkpt lat="44.20859" lon="5.02734">
        <ele>268</ele>
        <time>2018-09-02T14:15:18 02:00</time>
      </trkpt>
      <trkpt lat="44.20859" lon="5.02759">
        <ele>267</ele>
        <time>2018-09-02T14:15:23 02:00</time>
      </trkpt>
      <trkpt lat="44.20851" lon="5.0278">
        <ele>265</ele>
        <time>2018-09-02T14:15:28 02:00</time>
      </trkpt>
      <trkpt lat="44.20842" lon="5.02801">
        <ele>263</ele>
        <time>2018-09-02T14:15:33 02:00</time>
      </trkpt>
      <trkpt lat="44.20851" lon="5.02838">
        <ele>266</ele>
        <time>2018-09-02T14:15:38 02:00</time>
      </trkpt>
      <trkpt lat="44.20858" lon="5.02856">
        <ele>269</ele>
        <time>2018-09-02T14:15:43 02:00</time>
      </trkpt>
      <trkpt lat="44.20871" lon="5.02869">
        <ele>271</ele>
        <time>2018-09-02T14:15:48 02:00</time>
      </trkpt>
      <trkpt lat="44.20875" lon="5.02904">
        <ele>273</ele>
        <time>2018-09-02T14:15:53 02:00</time>
      </trkpt>
      <trkpt lat="44.20908" lon="5.02917">
        <ele>276</ele>
        <time>2018-09-02T14:15:58 02:00</time>
      </trkpt>
      <trkpt lat="44.20933" lon="5.0293">
        <ele>280</ele>
        <time>2018-09-02T14:16:03 02:00</time>
      </trkpt>
      <trkpt lat="44.20999" lon="5.02941">
        <ele>282</ele>
        <time>2018-09-02T14:16:08 02:00</time>
      </trkpt>
      <trkpt lat="44.21026" lon="5.02946">
        <ele>283</ele>
        <time>2018-09-02T14:16:13 02:00</time>
      </trkpt>
      <trkpt lat="44.21059" lon="5.02963">
        <ele>286</ele>
        <time>2018-09-02T14:16:18 02:00</time>
      </trkpt>
      <trkpt lat="44.21093" lon="5.02979">
        <ele>287</ele>
        <time>2018-09-02T14:16:23 02:00</time>
      </trkpt>
      <trkpt lat="44.21147" lon="5.02974">
        <ele>291</ele>
        <time>2018-09-02T14:16:28 02:00</time>
      </trkpt>
      <trkpt lat="44.21165" lon="5.02973">
        <ele>292</ele>
        <time>2018-09-02T14:16:33 02:00</time>
      </trkpt>
      <trkpt lat="44.21214" lon="5.0299">
        <ele>294</ele>
        <time>2018-09-02T14:16:38 02:00</time>
      </trkpt>
      <trkpt lat="44.21236" lon="5.03">
        <ele>295</ele>
        <time>2018-09-02T14:16:43 02:00</time>
      </trkpt>
      <trkpt lat="44.21267" lon="5.03025">
        <ele>303</ele>
        <time>2018-09-02T14:16:48 02:00</time>
      </trkpt>
      <trkpt lat="44.21322" lon="5.03032">
        <ele>308</ele>
        <time>2018-09-02T14:16:53 02:00</time>
      </trkpt>
      <trkpt lat="44.21346" lon="5.03039">
        <ele>311</ele>
        <time>2018-09-02T14:16:58 02:00</time>
      </trkpt>
      <trkpt lat="44.21365" lon="5.03048">
        <ele>312</ele>
        <time>2018-09-02T14:17:03 02:00</time>
      </trkpt>
      <trkpt lat="44.21423" lon="5.03086">
        <ele>313</ele>
        <time>2018-09-02T14:17:08 02:00</time>
      </trkpt>
      <trkpt lat="44.21444" lon="5.03099">
        <ele>314</ele>
        <time>2018-09-02T14:17:13 02:00</time>
      </trkpt>
      <trkpt lat="44.21472" lon="5.03127">
        <ele>316</ele>
        <time>2018-09-02T14:17:18 02:00</time>
      </trkpt>
      <trkpt lat="44.21496" lon="5.03153">
        <ele>319</ele>
        <time>2018-09-02T14:17:23 02:00</time>
      </trkpt>
      <trkpt lat="44.21498" lon="5.03165">
        <ele>321</ele>
        <time>2018-09-02T14:17:28 02:00</time>
      </trkpt>
      <trkpt lat="44.21494" lon="5.03175">
        <ele>323</ele>
        <time>2018-09-02T14:17:33 02:00</time>
      </trkpt>
      <trkpt lat="44.21472" lon="5.03199">
        <ele>327</ele>
        <time>2018-09-02T14:17:38 02:00</time>
      </trkpt>
      <trkpt lat="44.21468" lon="5.0321">
        <ele>329</ele>
        <time>2018-09-02T14:17:43 02:00</time>
      </trkpt>
      <trkpt lat="44.21469" lon="5.03226">
        <ele>332</ele>
        <time>2018-09-02T14:17:48 02:00</time>
      </trkpt>
      <trkpt lat="44.21482" lon="5.03242">
        <ele>333</ele>
        <time>2018-09-02T14:17:53 02:00</time>
      </trkpt>
      <trkpt lat="44.21526" lon="5.03288">
        <ele>333</ele>
        <time>2018-09-02T14:17:58 02:00</time>
      </trkpt>
      <trkpt lat="44.21566" lon="5.03342">
        <ele>333</ele>
        <time>2018-09-02T14:18:03 02:00</time>
      </trkpt>
      <trkpt lat="44.21566" lon="5.03351">
        <ele>333</ele>
        <time>2018-09-02T14:18:08 02:00</time>
      </trkpt>
      <trkpt lat="44.21535" lon="5.03374">
        <ele>339</ele>
        <time>2018-09-02T14:18:13 02:00</time>
      </trkpt>
      <trkpt lat="44.21512" lon="5.03381">
        <ele>344</ele>
        <time>2018-09-02T14:18:18 02:00</time>
      </trkpt>
      <trkpt lat="44.21492" lon="5.03381">
        <ele>347</ele>
        <time>2018-09-02T14:18:23 02:00</time>
      </trkpt>
      <trkpt lat="44.21478" lon="5.03387">
        <ele>349</ele>
        <time>2018-09-02T14:18:28 02:00</time>
      </trkpt>
      <trkpt lat="44.21468" lon="5.03401">
        <ele>350</ele>
        <time>2018-09-02T14:18:33 02:00</time>
      </trkpt>
      <trkpt lat="44.21463" lon="5.0343">
        <ele>351</ele>
        <time>2018-09-02T14:18:38 02:00</time>
      </trkpt>
      <trkpt lat="44.2147" lon="5.03452">
        <ele>350</ele>
        <time>2018-09-02T14:18:43 02:00</time>
      </trkpt>
      <trkpt lat="44.21488" lon="5.03475">
        <ele>348</ele>
        <time>2018-09-02T14:18:48 02:00</time>
      </trkpt>
      <trkpt lat="44.21492" lon="5.03493">
        <ele>347</ele>
        <time>2018-09-02T14:18:53 02:00</time>
      </trkpt>
      <trkpt lat="44.21489" lon="5.03518">
        <ele>348</ele>
        <time>2018-09-02T14:18:58 02:00</time>
      </trkpt>
      <trkpt lat="44.21489" lon="5.03535">
        <ele>348</ele>
        <time>2018-09-02T14:19:03 02:00</time>
      </trkpt>
      <trkpt lat="44.21493" lon="5.03561">
        <ele>348</ele>
        <time>2018-09-02T14:19:08 02:00</time>
      </trkpt>
      <trkpt lat="44.21503" lon="5.0358">
        <ele>347</ele>
        <time>2018-09-02T14:19:13 02:00</time>
      </trkpt>
      <trkpt lat="44.21518" lon="5.03599">
        <ele>346</ele>
        <time>2018-09-02T14:19:18 02:00</time>
      </trkpt>
      <trkpt lat="44.21534" lon="5.03621">
        <ele>346</ele>
        <time>2018-09-02T14:19:23 02:00</time>
      </trkpt>
      <trkpt lat="44.21546" lon="5.03631">
        <ele>346</ele>
        <time>2018-09-02T14:19:28 02:00</time>
      </trkpt>
      <trkpt lat="44.21574" lon="5.03642">
        <ele>344</ele>
        <time>2018-09-02T14:19:33 02:00</time>
      </trkpt>
      <trkpt lat="44.21592" lon="5.03655">
        <ele>343</ele>
        <time>2018-09-02T14:19:38 02:00</time>
      </trkpt>
      <trkpt lat="44.21626" lon="5.03683">
        <ele>340</ele>
        <time>2018-09-02T14:19:43 02:00</time>
      </trkpt>
      <trkpt lat="44.21653" lon="5.03703">
        <ele>338</ele>
        <time>2018-09-02T14:19:48 02:00</time>
      </trkpt>
      <trkpt lat="44.21667" lon="5.0371">
        <ele>336</ele>
        <time>2018-09-02T14:19:53 02:00</time>
      </trkpt>
      <trkpt lat="44.21684" lon="5.0372">
        <ele>335</ele>
        <time>2018-09-02T14:19:58 02:00</time>
      </trkpt>
      <trkpt lat="44.21707" lon="5.03748">
        <ele>336</ele>
        <time>2018-09-02T14:20:03 02:00</time>
      </trkpt>
      <trkpt lat="44.21724" lon="5.03783">
        <ele>334</ele>
        <time>2018-09-02T14:20:08 02:00</time>
      </trkpt>
      <trkpt lat="44.21726" lon="5.03806">
        <ele>334</ele>
        <time>2018-09-02T14:20:13 02:00</time>
      </trkpt>
      <trkpt lat="44.21723" lon="5.03836">
        <ele>335</ele>
        <time>2018-09-02T14:20:18 02:00</time>
      </trkpt>
      <trkpt lat="44.21725" lon="5.03857">
        <ele>334</ele>
        <time>2018-09-02T14:20:23 02:00</time>
      </trkpt>
      <trkpt lat="44.21734" lon="5.03883">
        <ele>333</ele>
        <time>2018-09-02T14:20:28 02:00</time>
      </trkpt>
      <trkpt lat="44.21719" lon="5.03908">
        <ele>332</ele>
        <time>2018-09-02T14:20:33 02:00</time>
      </trkpt>
      <trkpt lat="44.2168" lon="5.03948">
        <ele>328</ele>
        <time>2018-09-02T14:20:38 02:00</time>
      </trkpt>
      <trkpt lat="44.21677" lon="5.03964">
        <ele>327</ele>
        <time>2018-09-02T14:20:43 02:00</time>
      </trkpt>
      <trkpt lat="44.21672" lon="5.04015">
        <ele>323</ele>
        <time>2018-09-02T14:20:48 02:00</time>
      </trkpt>
      <trkpt lat="44.21664" lon="5.04063">
        <ele>319</ele>
        <time>2018-09-02T14:20:53 02:00</time>
      </trkpt>
      <trkpt lat="44.21665" lon="5.04074">
        <ele>319</ele>
        <time>2018-09-02T14:20:58 02:00</time>
      </trkpt>
      <trkpt lat="44.21673" lon="5.0408">
        <ele>318</ele>
        <time>2018-09-02T14:21:03 02:00</time>
      </trkpt>
      <trkpt lat="44.21684" lon="5.04071">
        <ele>319</ele>
        <time>2018-09-02T14:21:08 02:00</time>
      </trkpt>
      <trkpt lat="44.217" lon="5.04041">
        <ele>321</ele>
        <time>2018-09-02T14:21:13 02:00</time>
      </trkpt>
      <trkpt lat="44.21707" lon="5.04039">
        <ele>321</ele>
        <time>2018-09-02T14:21:18 02:00</time>
      </trkpt>
      <trkpt lat="44.21717" lon="5.04042">
        <ele>321</ele>
        <time>2018-09-02T14:21:23 02:00</time>
      </trkpt>
      <trkpt lat="44.21729" lon="5.04062">
        <ele>319</ele>
        <time>2018-09-02T14:21:28 02:00</time>
      </trkpt>
      <trkpt lat="44.21737" lon="5.04098">
        <ele>316</ele>
        <time>2018-09-02T14:21:33 02:00</time>
      </trkpt>
      <trkpt lat="44.21758" lon="5.0421">
        <ele>305</ele>
        <time>2018-09-02T14:21:38 02:00</time>
      </trkpt>
      <trkpt lat="44.21767" lon="5.04282">
        <ele>298</ele>
        <time>2018-09-02T14:21:43 02:00</time>
      </trkpt>
      <trkpt lat="44.21774" lon="5.04316">
        <ele>295</ele>
        <time>2018-09-02T14:21:48 02:00</time>
      </trkpt>
      <trkpt lat="44.21775" lon="5.04358">
        <ele>292</ele>
        <time>2018-09-02T14:21:53 02:00</time>
      </trkpt>
      <trkpt lat="44.2178" lon="5.04378">
        <ele>292</ele>
        <time>2018-09-02T14:21:58 02:00</time>
      </trkpt>
      <trkpt lat="44.21797" lon="5.04392">
        <ele>291</ele>
        <time>2018-09-02T14:22:03 02:00</time>
      </trkpt>
      <trkpt lat="44.21827" lon="5.04417">
        <ele>289</ele>
        <time>2018-09-02T14:22:08 02:00</time>
      </trkpt>
      <trkpt lat="44.21844" lon="5.04428">
        <ele>289</ele>
        <time>2018-09-02T14:22:13 02:00</time>
      </trkpt>
      <trkpt lat="44.21882" lon="5.04444">
        <ele>289</ele>
        <time>2018-09-02T14:22:18 02:00</time>
      </trkpt>
      <trkpt lat="44.21906" lon="5.04458">
        <ele>288</ele>
        <time>2018-09-02T14:22:23 02:00</time>
      </trkpt>
      <trkpt lat="44.21911" lon="5.04472">
        <ele>287</ele>
        <time>2018-09-02T14:22:28 02:00</time>
      </trkpt>
      <trkpt lat="44.21911" lon="5.04509">
        <ele>285</ele>
        <time>2018-09-02T14:22:33 02:00</time>
      </trkpt>
      <trkpt lat="44.21914" lon="5.04562">
        <ele>284</ele>
        <time>2018-09-02T14:22:38 02:00</time>
      </trkpt>
      <trkpt lat="44.21921" lon="5.04585">
        <ele>284</ele>
        <time>2018-09-02T14:22:43 02:00</time>
      </trkpt>
      <trkpt lat="44.21945" lon="5.04627">
        <ele>289</ele>
        <time>2018-09-02T14:22:48 02:00</time>
      </trkpt>
      <trkpt lat="44.21972" lon="5.0466">
        <ele>290</ele>
        <time>2018-09-02T14:22:53 02:00</time>
      </trkpt>
      <trkpt lat="44.21998" lon="5.04683">
        <ele>289</ele>
        <time>2018-09-02T14:22:58 02:00</time>
      </trkpt>
      <trkpt lat="44.22037" lon="5.04713">
        <ele>290</ele>
        <time>2018-09-02T14:23:03 02:00</time>
      </trkpt>
      <trkpt lat="44.22048" lon="5.04733">
        <ele>291</ele>
        <time>2018-09-02T14:23:08 02:00</time>
      </trkpt>
      <trkpt lat="44.22056" lon="5.04788">
        <ele>294</ele>
        <time>2018-09-02T14:23:13 02:00</time>
      </trkpt>
      <trkpt lat="44.22058" lon="5.04797">
        <ele>295</ele>
        <time>2018-09-02T14:23:18 02:00</time>
      </trkpt>
      <trkpt lat="44.22068" lon="5.04803">
        <ele>293</ele>
        <time>2018-09-02T14:23:23 02:00</time>
      </trkpt>
      <trkpt lat="44.22088" lon="5.04792">
        <ele>289</ele>
        <time>2018-09-02T14:23:28 02:00</time>
      </trkpt>
      <trkpt lat="44.22098" lon="5.04789">
        <ele>289</ele>
        <time>2018-09-02T14:23:33 02:00</time>
      </trkpt>
      <trkpt lat="44.22106" lon="5.04798">
        <ele>289</ele>
        <time>2018-09-02T14:23:38 02:00</time>
      </trkpt>
      <trkpt lat="44.2211" lon="5.04822">
        <ele>291</ele>
        <time>2018-09-02T14:23:43 02:00</time>
      </trkpt>
      <trkpt lat="44.22111" lon="5.04834">
        <ele>292</ele>
        <time>2018-09-02T14:23:48 02:00</time>
      </trkpt>
      <trkpt lat="44.22116" lon="5.0484">
        <ele>293</ele>
        <time>2018-09-02T14:23:53 02:00</time>
      </trkpt>
      <trkpt lat="44.22145" lon="5.0483">
        <ele>289</ele>
        <time>2018-09-02T14:23:58 02:00</time>
      </trkpt>
      <trkpt lat="44.22168" lon="5.04822">
        <ele>288</ele>
        <time>2018-09-02T14:24:03 02:00</time>
      </trkpt>
      <trkpt lat="44.22185" lon="5.04821">
        <ele>287</ele>
        <time>2018-09-02T14:24:08 02:00</time>
      </trkpt>
      <trkpt lat="44.22211" lon="5.04835">
        <ele>285</ele>
        <time>2018-09-02T14:24:13 02:00</time>
      </trkpt>
      <trkpt lat="44.22229" lon="5.04845">
        <ele>285</ele>
        <time>2018-09-02T14:24:18 02:00</time>
      </trkpt>
      <trkpt lat="44.22259" lon="5.04856">
        <ele>285</ele>
        <time>2018-09-02T14:24:23 02:00</time>
      </trkpt>
      <trkpt lat="44.22278" lon="5.04876">
        <ele>286</ele>
        <time>2018-09-02T14:24:28 02:00</time>
      </trkpt>
      <trkpt lat="44.22299" lon="5.04917">
        <ele>285</ele>
        <time>2018-09-02T14:24:33 02:00</time>
      </trkpt>
      <trkpt lat="44.22316" lon="5.04945">
        <ele>283</ele>
        <time>2018-09-02T14:24:38 02:00</time>
      </trkpt>
      <trkpt lat="44.22331" lon="5.04957">
        <ele>280</ele>
        <time>2018-09-02T14:24:43 02:00</time>
      </trkpt>
      <trkpt lat="44.22341" lon="5.0497">
        <ele>281</ele>
        <time>2018-09-02T14:24:48 02:00</time>
      </trkpt>
      <trkpt lat="44.22341" lon="5.0499">
        <ele>281</ele>
        <time>2018-09-02T14:24:53 02:00</time>
      </trkpt>
      <trkpt lat="44.22334" lon="5.05013">
        <ele>279</ele>
        <time>2018-09-02T14:24:58 02:00</time>
      </trkpt>
      <trkpt lat="44.22317" lon="5.05058">
        <ele>280</ele>
        <time>2018-09-02T14:25:03 02:00</time>
      </trkpt>
      <trkpt lat="44.22303" lon="5.05096">
        <ele>279</ele>
        <time>2018-09-02T14:25:08 02:00</time>
      </trkpt>
      <trkpt lat="44.22295" lon="5.0513">
        <ele>277</ele>
        <time>2018-09-02T14:25:13 02:00</time>
      </trkpt>
      <trkpt lat="44.22286" lon="5.05156">
        <ele>275</ele>
        <time>2018-09-02T14:25:18 02:00</time>
      </trkpt>
      <trkpt lat="44.22312" lon="5.05187">
        <ele>274</ele>
        <time>2018-09-02T14:25:23 02:00</time>
      </trkpt>
      <trkpt lat="44.2235" lon="5.05236">
        <ele>277</ele>
        <time>2018-09-02T14:25:28 02:00</time>
      </trkpt>
      <trkpt lat="44.22389" lon="5.05284">
        <ele>278</ele>
        <time>2018-09-02T14:25:33 02:00</time>
      </trkpt>
      <trkpt lat="44.22434" lon="5.05332">
        <ele>271</ele>
        <time>2018-09-02T14:25:38 02:00</time>
      </trkpt>
      <trkpt lat="44.22468" lon="5.05342">
        <ele>270</ele>
        <time>2018-09-02T14:25:43 02:00</time>
      </trkpt>
      <trkpt lat="44.22486" lon="5.05348">
        <ele>270</ele>
        <time>2018-09-02T14:25:48 02:00</time>
      </trkpt>
      <trkpt lat="44.22507" lon="5.05349">
        <ele>268</ele>
        <time>2018-09-02T14:25:53 02:00</time>
      </trkpt>
      <trkpt lat="44.22535" lon="5.05343">
        <ele>265</ele>
        <time>2018-09-02T14:25:58 02:00</time>
      </trkpt>
      <trkpt lat="44.22554" lon="5.05338">
        <ele>262</ele>
        <time>2018-09-02T14:26:03 02:00</time>
      </trkpt>
      <trkpt lat="44.22587" lon="5.05341">
        <ele>261</ele>
        <time>2018-09-02T14:26:08 02:00</time>
      </trkpt>
      <trkpt lat="44.22617" lon="5.05347">
        <ele>261</ele>
        <time>2018-09-02T14:26:13 02:00</time>
      </trkpt>
      <trkpt lat="44.22648" lon="5.05361">
        <ele>260</ele>
        <time>2018-09-02T14:26:18 02:00</time>
      </trkpt>
      <trkpt lat="44.22673" lon="5.05384">
        <ele>259</ele>
        <time>2018-09-02T14:26:23 02:00</time>
      </trkpt>
      <trkpt lat="44.22698" lon="5.05415">
        <ele>258</ele>
        <time>2018-09-02T14:26:28 02:00</time>
      </trkpt>
      <trkpt lat="44.22712" lon="5.05435">
        <ele>258</ele>
        <time>2018-09-02T14:26:33 02:00</time>
      </trkpt>
      <trkpt lat="44.2274" lon="5.05487">
        <ele>252</ele>
        <time>2018-09-02T14:26:38 02:00</time>
      </trkpt>
      <trkpt lat="44.22776" lon="5.05498">
        <ele>247</ele>
        <time>2018-09-02T14:26:43 02:00</time>
      </trkpt>
      <trkpt lat="44.22801" lon="5.05502">
        <ele>247</ele>
        <time>2018-09-02T14:26:48 02:00</time>
      </trkpt>
      <trkpt lat="44.22818" lon="5.05499">
        <ele>246</ele>
        <time>2018-09-02T14:26:53 02:00</time>
      </trkpt>
      <trkpt lat="44.22845" lon="5.0548">
        <ele>247</ele>
        <time>2018-09-02T14:26:58 02:00</time>
      </trkpt>
      <trkpt lat="44.22865" lon="5.05457">
        <ele>247</ele>
        <time>2018-09-02T14:27:03 02:00</time>
      </trkpt>
      <trkpt lat="44.22875" lon="5.05442">
        <ele>246</ele>
        <time>2018-09-02T14:27:08 02:00</time>
      </trkpt>
      <trkpt lat="44.22926" lon="5.05443">
        <ele>243</ele>
        <time>2018-09-02T14:27:13 02:00</time>
      </trkpt>
      <trkpt lat="44.22954" lon="5.05455">
        <ele>244</ele>
        <time>2018-09-02T14:27:18 02:00</time>
      </trkpt>
      <trkpt lat="44.22996" lon="5.05471">
        <ele>244</ele>
        <time>2018-09-02T14:27:23 02:00</time>
      </trkpt>
      <trkpt lat="44.23011" lon="5.05514">
        <ele>242</ele>
        <time>2018-09-02T14:27:28 02:00</time>
      </trkpt>
      <trkpt lat="44.2302" lon="5.05535">
        <ele>243</ele>
        <time>2018-09-02T14:27:33 02:00</time>
      </trkpt>
      <trkpt lat="44.23036" lon="5.05556">
        <ele>243</ele>
        <time>2018-09-02T14:27:38 02:00</time>
      </trkpt>
      <trkpt lat="44.23037" lon="5.05578">
        <ele>242</ele>
        <time>2018-09-02T14:27:43 02:00</time>
      </trkpt>
      <trkpt lat="44.23034" lon="5.05617">
        <ele>240</ele>
        <time>2018-09-02T14:27:48 02:00</time>
      </trkpt>
      <trkpt lat="44.23027" lon="5.05641">
        <ele>238</ele>
        <time>2018-09-02T14:27:53 02:00</time>
      </trkpt>
      <trkpt lat="44.23013" lon="5.05656">
        <ele>238</ele>
        <time>2018-09-02T14:27:58 02:00</time>
      </trkpt>
      <trkpt lat="44.23001" lon="5.05662">
        <ele>239</ele>
        <time>2018-09-02T14:28:03 02:00</time>
      </trkpt>
      <trkpt lat="44.22973" lon="5.0567">
        <ele>246</ele>
        <time>2018-09-02T14:28:08 02:00</time>
      </trkpt>
      <trkpt lat="44.22944" lon="5.05675">
        <ele>252</ele>
        <time>2018-09-02T14:28:13 02:00</time>
      </trkpt>
      <trkpt lat="44.22918" lon="5.05683">
        <ele>259</ele>
        <time>2018-09-02T14:28:18 02:00</time>
      </trkpt>
      <trkpt lat="44.229" lon="5.05691">
        <ele>262</ele>
        <time>2018-09-02T14:28:23 02:00</time>
      </trkpt>
      <trkpt lat="44.22869" lon="5.05712">
        <ele>268</ele>
        <time>2018-09-02T14:28:28 02:00</time>
      </trkpt>
      <trkpt lat="44.22841" lon="5.05727">
        <ele>271</ele>
        <time>2018-09-02T14:28:33 02:00</time>
      </trkpt>
      <trkpt lat="44.22816" lon="5.05734">
        <ele>274</ele>
        <time>2018-09-02T14:28:38 02:00</time>
      </trkpt>
      <trkpt lat="44.22788" lon="5.05745">
        <ele>277</ele>
        <time>2018-09-02T14:28:43 02:00</time>
      </trkpt>
      <trkpt lat="44.22767" lon="5.05754">
        <ele>279</ele>
        <time>2018-09-02T14:28:48 02:00</time>
      </trkpt>
      <trkpt lat="44.22753" lon="5.05753">
        <ele>281</ele>
        <time>2018-09-02T14:28:53 02:00</time>
      </trkpt>
      <trkpt lat="44.22747" lon="5.05749">
        <ele>282</ele>
        <time>2018-09-02T14:28:58 02:00</time>
      </trkpt>
      <trkpt lat="44.22751" lon="5.05738">
        <ele>281</ele>
        <time>2018-09-02T14:29:03 02:00</time>
      </trkpt>
      <trkpt lat="44.22777" lon="5.05723">
        <ele>279</ele>
        <time>2018-09-02T14:29:08 02:00</time>
      </trkpt>
      <trkpt lat="44.22821" lon="5.05672">
        <ele>276</ele>
        <time>2018-09-02T14:29:13 02:00</time>
      </trkpt>
      <trkpt lat="44.22823" lon="5.05653">
        <ele>274</ele>
        <time>2018-09-02T14:29:18 02:00</time>
      </trkpt>
      <trkpt lat="44.22816" lon="5.05646">
        <ele>274</ele>
        <time>2018-09-02T14:29:23 02:00</time>
      </trkpt>
      <trkpt lat="44.22804" lon="5.05647">
        <ele>276</ele>
        <time>2018-09-02T14:29:28 02:00</time>
      </trkpt>
      <trkpt lat="44.22779" lon="5.05657">
        <ele>279</ele>
        <time>2018-09-02T14:29:33 02:00</time>
      </trkpt>
      <trkpt lat="44.22744" lon="5.05666">
        <ele>285</ele>
        <time>2018-09-02T14:29:38 02:00</time>
      </trkpt>
      <trkpt lat="44.22726" lon="5.05665">
        <ele>286</ele>
        <time>2018-09-02T14:29:43 02:00</time>
      </trkpt>
      <trkpt lat="44.22709" lon="5.0566">
        <ele>288</ele>
        <time>2018-09-02T14:29:48 02:00</time>
      </trkpt>
      <trkpt lat="44.22677" lon="5.0564">
        <ele>291</ele>
        <time>2018-09-02T14:29:53 02:00</time>
      </trkpt>
      <trkpt lat="44.22664" lon="5.05633">
        <ele>292</ele>
        <time>2018-09-02T14:29:58 02:00</time>
      </trkpt>
      <trkpt lat="44.22636" lon="5.05622">
        <ele>297</ele>
        <time>2018-09-02T14:30:03 02:00</time>
      </trkpt>
      <trkpt lat="44.22615" lon="5.05607">
        <ele>300</ele>
        <time>2018-09-02T14:30:08 02:00</time>
      </trkpt>
      <trkpt lat="44.22578" lon="5.05588">
        <ele>307</ele>
        <time>2018-09-02T14:30:13 02:00</time>
      </trkpt>
      <trkpt lat="44.2256" lon="5.05582">
        <ele>309</ele>
        <time>2018-09-02T14:30:18 02:00</time>
      </trkpt>
      <trkpt lat="44.2253" lon="5.05579">
        <ele>313</ele>
        <time>2018-09-02T14:30:23 02:00</time>
      </trkpt>
      <trkpt lat="44.22512" lon="5.05583">
        <ele>315</ele>
        <time>2018-09-02T14:30:28 02:00</time>
      </trkpt>
      <trkpt lat="44.22474" lon="5.05594">
        <ele>319</ele>
        <time>2018-09-02T14:30:33 02:00</time>
      </trkpt>
      <trkpt lat="44.22435" lon="5.05614">
        <ele>321</ele>
        <time>2018-09-02T14:30:38 02:00</time>
      </trkpt>
      <trkpt lat="44.22418" lon="5.05619">
        <ele>323</ele>
        <time>2018-09-02T14:30:43 02:00</time>
      </trkpt>
      <trkpt lat="44.22369" lon="5.05644">
        <ele>326</ele>
        <time>2018-09-02T14:30:48 02:00</time>
      </trkpt>
      <trkpt lat="44.22342" lon="5.05658">
        <ele>328</ele>
        <time>2018-09-02T14:30:53 02:00</time>
      </trkpt>
      <trkpt lat="44.22298" lon="5.05678">
        <ele>330</ele>
        <time>2018-09-02T14:30:58 02:00</time>
      </trkpt>
      <trkpt lat="44.22284" lon="5.05681">
        <ele>330</ele>
        <time>2018-09-02T14:31:03 02:00</time>
      </trkpt>
      <trkpt lat="44.22265" lon="5.05681">
        <ele>331</ele>
        <time>2018-09-02T14:31:08 02:00</time>
      </trkpt>
      <trkpt lat="44.22236" lon="5.05676">
        <ele>333</ele>
        <time>2018-09-02T14:31:13 02:00</time>
      </trkpt>
      <trkpt lat="44.22204" lon="5.05669">
        <ele>334</ele>
        <time>2018-09-02T14:31:18 02:00</time>
      </trkpt>
      <trkpt lat="44.22183" lon="5.0566">
        <ele>335</ele>
        <time>2018-09-02T14:31:23 02:00</time>
      </trkpt>
      <trkpt lat="44.2216" lon="5.05646">
        <ele>337</ele>
        <time>2018-09-02T14:31:28 02:00</time>
      </trkpt>
      <trkpt lat="44.22132" lon="5.05639">
        <ele>339</ele>
        <time>2018-09-02T14:31:33 02:00</time>
      </trkpt>
      <trkpt lat="44.22108" lon="5.05631">
        <ele>340</ele>
        <time>2018-09-02T14:31:38 02:00</time>
      </trkpt>
      <trkpt lat="44.22085" lon="5.05622">
        <ele>342</ele>
        <time>2018-09-02T14:31:43 02:00</time>
      </trkpt>
      <trkpt lat="44.22066" lon="5.05613">
        <ele>343</ele>
        <time>2018-09-02T14:31:48 02:00</time>
      </trkpt>
      <trkpt lat="44.22046" lon="5.05596">
        <ele>345</ele>
        <time>2018-09-02T14:31:53 02:00</time>
      </trkpt>
      <trkpt lat="44.22025" lon="5.05582">
        <ele>346</ele>
        <time>2018-09-02T14:31:58 02:00</time>
      </trkpt>
      <trkpt lat="44.22005" lon="5.05573">
        <ele>347</ele>
        <time>2018-09-02T14:32:03 02:00</time>
      </trkpt>
      <trkpt lat="44.21982" lon="5.0557">
        <ele>348</ele>
        <time>2018-09-02T14:32:08 02:00</time>
      </trkpt>
      <trkpt lat="44.21954" lon="5.05561">
        <ele>350</ele>
        <time>2018-09-02T14:32:13 02:00</time>
      </trkpt>
      <trkpt lat="44.21934" lon="5.05556">
        <ele>351</ele>
        <time>2018-09-02T14:32:18 02:00</time>
      </trkpt>
      <trkpt lat="44.21918" lon="5.05552">
        <ele>352</ele>
        <time>2018-09-02T14:32:23 02:00</time>
      </trkpt>
      <trkpt lat="44.21895" lon="5.05542">
        <ele>352</ele>
        <time>2018-09-02T14:32:28 02:00</time>
      </trkpt>
      <trkpt lat="44.21864" lon="5.05533">
        <ele>354</ele>
        <time>2018-09-02T14:32:33 02:00</time>
      </trkpt>
      <trkpt lat="44.2182" lon="5.05526">
        <ele>356</ele>
        <time>2018-09-02T14:32:38 02:00</time>
      </trkpt>
      <trkpt lat="44.21774" lon="5.05519">
        <ele>355</ele>
        <time>2018-09-02T14:32:43 02:00</time>
      </trkpt>
      <trkpt lat="44.21729" lon="5.05522">
        <ele>356</ele>
        <time>2018-09-02T14:32:48 02:00</time>
      </trkpt>
      <trkpt lat="44.21678" lon="5.05524">
        <ele>358</ele>
        <time>2018-09-02T14:32:53 02:00</time>
      </trkpt>
      <trkpt lat="44.21637" lon="5.05516">
        <ele>357</ele>
        <time>2018-09-02T14:32:58 02:00</time>
      </trkpt>
      <trkpt lat="44.21617" lon="5.05509">
        <ele>357</ele>
        <time>2018-09-02T14:33:03 02:00</time>
      </trkpt>
      <trkpt lat="44.2159" lon="5.05503">
        <ele>358</ele>
        <time>2018-09-02T14:33:08 02:00</time>
      </trkpt>
      <trkpt lat="44.2157" lon="5.05497">
        <ele>356</ele>
        <time>2018-09-02T14:33:13 02:00</time>
      </trkpt>
      <trkpt lat="44.21556" lon="5.05485">
        <ele>354</ele>
        <time>2018-09-02T14:33:18 02:00</time>
      </trkpt>
      <trkpt lat="44.21535" lon="5.0543">
        <ele>355</ele>
        <time>2018-09-02T14:33:23 02:00</time>
      </trkpt>
      <trkpt lat="44.2152" lon="5.05371">
        <ele>358</ele>
        <time>2018-09-02T14:33:28 02:00</time>
      </trkpt>
      <trkpt lat="44.21509" lon="5.05331">
        <ele>361</ele>
        <time>2018-09-02T14:33:33 02:00</time>
      </trkpt>
      <trkpt lat="44.21486" lon="5.05269">
        <ele>366</ele>
        <time>2018-09-02T14:33:38 02:00</time>
      </trkpt>
      <trkpt lat="44.21471" lon="5.05231">
        <ele>369</ele>
        <time>2018-09-02T14:33:43 02:00</time>
      </trkpt>
      <trkpt lat="44.2145" lon="5.05196">
        <ele>372</ele>
        <time>2018-09-02T14:33:48 02:00</time>
      </trkpt>
      <trkpt lat="44.2142" lon="5.05145">
        <ele>377</ele>
        <time>2018-09-02T14:33:53 02:00</time>
      </trkpt>
      <trkpt lat="44.21392" lon="5.05099">
        <ele>379</ele>
        <time>2018-09-02T14:33:58 02:00</time>
      </trkpt>
      <trkpt lat="44.21355" lon="5.05031">
        <ele>378</ele>
        <time>2018-09-02T14:34:03 02:00</time>
      </trkpt>
      <trkpt lat="44.21332" lon="5.04998">
        <ele>378</ele>
        <time>2018-09-02T14:34:08 02:00</time>
      </trkpt>
      <trkpt lat="44.21317" lon="5.04987">
        <ele>379</ele>
        <time>2018-09-02T14:34:13 02:00</time>
      </trkpt>
      <trkpt lat="44.21303" lon="5.04976">
        <ele>380</ele>
        <time>2018-09-02T14:34:18 02:00</time>
      </trkpt>
      <trkpt lat="44.21289" lon="5.0497">
        <ele>381</ele>
        <time>2018-09-02T14:34:23 02:00</time>
      </trkpt>
      <trkpt lat="44.21257" lon="5.04938">
        <ele>384</ele>
        <time>2018-09-02T14:34:28 02:00</time>
      </trkpt>
      <trkpt lat="44.21222" lon="5.0491">
        <ele>388</ele>
        <time>2018-09-02T14:34:33 02:00</time>
      </trkpt>
      <trkpt lat="44.21196" lon="5.04892">
        <ele>391</ele>
        <time>2018-09-02T14:34:38 02:00</time>
      </trkpt>
      <trkpt lat="44.21174" lon="5.04882">
        <ele>394</ele>
        <time>2018-09-02T14:34:43 02:00</time>
      </trkpt>
      <trkpt lat="44.21141" lon="5.04869">
        <ele>397</ele>
        <time>2018-09-02T14:34:48 02:00</time>
      </trkpt>
      <trkpt lat="44.21126" lon="5.0486">
        <ele>398</ele>
        <time>2018-09-02T14:34:53 02:00</time>
      </trkpt>
      <trkpt lat="44.21104" lon="5.0484">
        <ele>400</ele>
        <time>2018-09-02T14:34:58 02:00</time>
      </trkpt>
      <trkpt lat="44.2109" lon="5.04817">
        <ele>401</ele>
        <time>2018-09-02T14:35:03 02:00</time>
      </trkpt>
      <trkpt lat="44.21059" lon="5.04784">
        <ele>402</ele>
        <time>2018-09-02T14:35:08 02:00</time>
      </trkpt>
      <trkpt lat="44.21026" lon="5.0474">
        <ele>402</ele>
        <time>2018-09-02T14:35:13 02:00</time>
      </trkpt>
      <trkpt lat="44.20994" lon="5.04697">
        <ele>397</ele>
        <time>2018-09-02T14:35:18 02:00</time>
      </trkpt>
      <trkpt lat="44.20972" lon="5.04677">
        <ele>396</ele>
        <time>2018-09-02T14:35:23 02:00</time>
      </trkpt>
      <trkpt lat="44.20953" lon="5.04671">
        <ele>396</ele>
        <time>2018-09-02T14:35:28 02:00</time>
      </trkpt>
      <trkpt lat="44.20935" lon="5.04664">
        <ele>396</ele>
        <time>2018-09-02T14:35:33 02:00</time>
      </trkpt>
      <trkpt lat="44.20921" lon="5.04655">
        <ele>394</ele>
        <time>2018-09-02T14:35:38 02:00</time>
      </trkpt>
      <trkpt lat="44.20904" lon="5.04635">
        <ele>393</ele>
        <time>2018-09-02T14:35:43 02:00</time>
      </trkpt>
      <trkpt lat="44.20882" lon="5.04604">
        <ele>392</ele>
        <time>2018-09-02T14:35:48 02:00</time>
      </trkpt>
      <trkpt lat="44.20861" lon="5.04581">
        <ele>392</ele>
        <time>2018-09-02T14:35:53 02:00</time>
      </trkpt>
      <trkpt lat="44.20822" lon="5.04536">
        <ele>389</ele>
        <time>2018-09-02T14:35:58 02:00</time>
      </trkpt>
      <trkpt lat="44.20796" lon="5.0452">
        <ele>390</ele>
        <time>2018-09-02T14:36:03 02:00</time>
      </trkpt>
      <trkpt lat="44.20768" lon="5.04505">
        <ele>391</ele>
        <time>2018-09-02T14:36:08 02:00</time>
      </trkpt>
      <trkpt lat="44.20743" lon="5.04487">
        <ele>392</ele>
        <time>2018-09-02T14:36:13 02:00</time>
      </trkpt>
      <trkpt lat="44.20703" lon="5.04451">
        <ele>393</ele>
        <time>2018-09-02T14:36:18 02:00</time>
      </trkpt>
      <trkpt lat="44.20689" lon="5.04441">
        <ele>393</ele>
        <time>2018-09-02T14:36:23 02:00</time>
      </trkpt>
      <trkpt lat="44.20666" lon="5.04428">
        <ele>394</ele>
        <time>2018-09-02T14:36:28 02:00</time>
      </trkpt>
      <trkpt lat="44.20633" lon="5.04416">
        <ele>395</ele>
        <time>2018-09-02T14:36:33 02:00</time>
      </trkpt>
      <trkpt lat="44.20607" lon="5.04411">
        <ele>398</ele>
        <time>2018-09-02T14:36:38 02:00</time>
      </trkpt>
      <trkpt lat="44.20589" lon="5.04407">
        <ele>399</ele>
        <time>2018-09-02T14:36:43 02:00</time>
      </trkpt>
      <trkpt lat="44.20568" lon="5.04408">
        <ele>401</ele>
        <time>2018-09-02T14:36:48 02:00</time>
      </trkpt>
      <trkpt lat="44.20554" lon="5.04411">
        <ele>402</ele>
        <time>2018-09-02T14:36:53 02:00</time>
      </trkpt>
      <trkpt lat="44.20536" lon="5.04406">
        <ele>402</ele>
        <time>2018-09-02T14:36:58 02:00</time>
      </trkpt>
      <trkpt lat="44.20519" lon="5.04401">
        <ele>402</ele>
        <time>2018-09-02T14:37:03 02:00</time>
      </trkpt>
      <trkpt lat="44.20497" lon="5.04401">
        <ele>403</ele>
        <time>2018-09-02T14:37:08 02:00</time>
      </trkpt>
      <trkpt lat="44.20488" lon="5.04394">
        <ele>403</ele>
        <time>2018-09-02T14:37:13 02:00</time>
      </trkpt>
      <trkpt lat="44.20474" lon="5.04393">
        <ele>404</ele>
        <time>2018-09-02T14:37:18 02:00</time>
      </trkpt>
      <trkpt lat="44.20449" lon="5.04393">
        <ele>404</ele>
        <time>2018-09-02T14:37:23 02:00</time>
      </trkpt>
      <trkpt lat="44.20415" lon="5.04388">
        <ele>405</ele>
        <time>2018-09-02T14:37:28 02:00</time>
      </trkpt>
      <trkpt lat="44.20377" lon="5.04381">
        <ele>406</ele>
        <time>2018-09-02T14:37:33 02:00</time>
      </trkpt>
      <trkpt lat="44.20352" lon="5.04374">
        <ele>407</ele>
        <time>2018-09-02T14:37:38 02:00</time>
      </trkpt>
      <trkpt lat="44.20338" lon="5.04374">
        <ele>407</ele>
        <time>2018-09-02T14:37:43 02:00</time>
      </trkpt>
      <trkpt lat="44.20322" lon="5.04374">
        <ele>407</ele>
        <time>2018-09-02T14:37:48 02:00</time>
      </trkpt>
      <trkpt lat="44.20306" lon="5.0438">
        <ele>408</ele>
        <time>2018-09-02T14:37:53 02:00</time>
      </trkpt>
      <trkpt lat="44.2029" lon="5.0438">
        <ele>408</ele>
        <time>2018-09-02T14:37:58 02:00</time>
      </trkpt>
      <trkpt lat="44.20289" lon="5.04352">
        <ele>407</ele>
        <time>2018-09-02T14:38:03 02:00</time>
      </trkpt>
      <trkpt lat="44.20305" lon="5.04316">
        <ele>406</ele>
        <time>2018-09-02T14:38:08 02:00</time>
      </trkpt>
      <trkpt lat="44.20325" lon="5.04227">
        <ele>404</ele>
        <time>2018-09-02T14:38:13 02:00</time>
      </trkpt>
      <trkpt lat="44.20333" lon="5.04189">
        <ele>401</ele>
        <time>2018-09-02T14:38:18 02:00</time>
      </trkpt>
      <trkpt lat="44.20336" lon="5.04181">
        <ele>400</ele>
        <time>2018-09-02T14:38:23 02:00</time>
      </trkpt>
      <trkpt lat="44.20366" lon="5.04161">
        <ele>400</ele>
        <time>2018-09-02T14:38:28 02:00</time>
      </trkpt>
      <trkpt lat="44.20382" lon="5.04151">
        <ele>399</ele>
        <time>2018-09-02T14:38:33 02:00</time>
      </trkpt>
      <trkpt lat="44.20397" lon="5.04131">
        <ele>399</ele>
        <time>2018-09-02T14:38:38 02:00</time>
      </trkpt>
      <trkpt lat="44.2041" lon="5.04107">
        <ele>398</ele>
        <time>2018-09-02T14:38:43 02:00</time>
      </trkpt>
      <trkpt lat="44.20419" lon="5.04077">
        <ele>398</ele>
        <time>2018-09-02T14:38:48 02:00</time>
      </trkpt>
      <trkpt lat="44.20425" lon="5.04054">
        <ele>401</ele>
        <time>2018-09-02T14:38:53 02:00</time>
      </trkpt>
      <trkpt lat="44.20437" lon="5.04053">
        <ele>402</ele>
        <time>2018-09-02T14:38:58 02:00</time>
      </trkpt>
      <trkpt lat="44.20461" lon="5.04055">
        <ele>403</ele>
        <time>2018-09-02T14:39:03 02:00</time>
      </trkpt>
      <trkpt lat="44.20488" lon="5.04052">
        <ele>406</ele>
        <time>2018-09-02T14:39:08 02:00</time>
      </trkpt>
      <trkpt lat="44.20527" lon="5.04045">
        <ele>408</ele>
        <time>2018-09-02T14:39:13 02:00</time>
      </trkpt>
      <trkpt lat="44.20526" lon="5.04039">
        <ele>409</ele>
        <time>2018-09-02T14:39:18 02:00</time>
      </trkpt>
      <trkpt lat="44.20492" lon="5.04022">
        <ele>411</ele>
        <time>2018-09-02T14:39:23 02:00</time>
      </trkpt>
      <trkpt lat="44.20479" lon="5.04011">
        <ele>411</ele>
        <time>2018-09-02T14:39:28 02:00</time>
      </trkpt>
      <trkpt lat="44.20466" lon="5.04004">
        <ele>411</ele>
        <time>2018-09-02T14:39:33 02:00</time>
      </trkpt>
      <trkpt lat="44.20449" lon="5.03987">
        <ele>410</ele>
        <time>2018-09-02T14:39:38 02:00</time>
      </trkpt>
      <trkpt lat="44.20437" lon="5.03971">
        <ele>410</ele>
        <time>2018-09-02T14:39:43 02:00</time>
      </trkpt>
      <trkpt lat="44.2043" lon="5.03957">
        <ele>410</ele>
        <time>2018-09-02T14:39:48 02:00</time>
      </trkpt>
      <trkpt lat="44.2043" lon="5.03929">
        <ele>412</ele>
        <time>2018-09-02T14:39:53 02:00</time>
      </trkpt>
      <trkpt lat="44.20431" lon="5.03916">
        <ele>413</ele>
        <time>2018-09-02T14:39:58 02:00</time>
      </trkpt>
      <trkpt lat="44.20443" lon="5.03897">
        <ele>416</ele>
        <time>2018-09-02T14:40:03 02:00</time>
      </trkpt>
      <trkpt lat="44.20456" lon="5.03884">
        <ele>418</ele>
        <time>2018-09-02T14:40:08 02:00</time>
      </trkpt>
      <trkpt lat="44.20484" lon="5.03864">
        <ele>421</ele>
        <time>2018-09-02T14:40:13 02:00</time>
      </trkpt>
      <trkpt lat="44.2051" lon="5.03849">
        <ele>423</ele>
        <time>2018-09-02T14:40:18 02:00</time>
      </trkpt>
      <trkpt lat="44.20531" lon="5.03833">
        <ele>423</ele>
        <time>2018-09-02T14:40:23 02:00</time>
      </trkpt>
      <trkpt lat="44.20545" lon="5.03812">
        <ele>423</ele>
        <time>2018-09-02T14:40:28 02:00</time>
      </trkpt>
      <trkpt lat="44.20549" lon="5.03791">
        <ele>423</ele>
        <time>2018-09-02T14:40:33 02:00</time>
      </trkpt>
      <trkpt lat="44.20553" lon="5.03748">
        <ele>424</ele>
        <time>2018-09-02T14:40:38 02:00</time>
      </trkpt>
      <trkpt lat="44.20554" lon="5.03727">
        <ele>425</ele>
        <time>2018-09-02T14:40:43 02:00</time>
      </trkpt>
      <trkpt lat="44.20563" lon="5.03705">
        <ele>425</ele>
        <time>2018-09-02T14:40:48 02:00</time>
      </trkpt>
      <trkpt lat="44.20574" lon="5.0369">
        <ele>424</ele>
        <time>2018-09-02T14:40:53 02:00</time>
      </trkpt>
      <trkpt lat="44.20592" lon="5.03681">
        <ele>423</ele>
        <time>2018-09-02T14:40:58 02:00</time>
      </trkpt>
      <trkpt lat="44.20617" lon="5.03669">
        <ele>421</ele>
        <time>2018-09-02T14:41:03 02:00</time>
      </trkpt>
      <trkpt lat="44.20628" lon="5.03653">
        <ele>421</ele>
        <time>2018-09-02T14:41:08 02:00</time>
      </trkpt>
      <trkpt lat="44.20656" lon="5.0363">
        <ele>420</ele>
        <time>2018-09-02T14:41:13 02:00</time>
      </trkpt>
      <trkpt lat="44.20679" lon="5.03626">
        <ele>419</ele>
        <time>2018-09-02T14:41:18 02:00</time>
      </trkpt>
      <trkpt lat="44.20716" lon="5.03631">
        <ele>416</ele>
        <time>2018-09-02T14:41:23 02:00</time>
      </trkpt>
      <trkpt lat="44.20742" lon="5.03628">
        <ele>415</ele>
        <time>2018-09-02T14:41:28 02:00</time>
      </trkpt>
      <trkpt lat="44.20775" lon="5.0362">
        <ele>414</ele>
        <time>2018-09-02T14:41:33 02:00</time>
      </trkpt>
      <trkpt lat="44.20814" lon="5.03622">
        <ele>411</ele>
        <time>2018-09-02T14:41:38 02:00</time>
      </trkpt>
      <trkpt lat="44.2085" lon="5.03624">
        <ele>408</ele>
        <time>2018-09-02T14:41:43 02:00</time>
      </trkpt>
      <trkpt lat="44.20887" lon="5.03619">
        <ele>405</ele>
        <time>2018-09-02T14:41:48 02:00</time>
      </trkpt>
      <trkpt lat="44.20928" lon="5.03606">
        <ele>403</ele>
        <time>2018-09-02T14:41:53 02:00</time>
      </trkpt>
      <trkpt lat="44.20938" lon="5.03601">
        <ele>403</ele>
        <time>2018-09-02T14:41:58 02:00</time>
      </trkpt>
      <trkpt lat="44.20982" lon="5.03599">
        <ele>400</ele>
        <time>2018-09-02T14:42:03 02:00</time>
      </trkpt>
      <trkpt lat="44.21013" lon="5.03583">
        <ele>397</ele>
        <time>2018-09-02T14:42:08 02:00</time>
      </trkpt>
      <trkpt lat="44.21041" lon="5.03569">
        <ele>393</ele>
        <time>2018-09-02T14:42:13 02:00</time>
      </trkpt>
      <trkpt lat="44.2113" lon="5.03515">
        <ele>380</ele>
        <time>2018-09-02T14:42:18 02:00</time>
      </trkpt>
      <trkpt lat="44.21141" lon="5.03517">
        <ele>380</ele>
        <time>2018-09-02T14:42:23 02:00</time>
      </trkpt>
      <trkpt lat="44.21153" lon="5.03532">
        <ele>380</ele>
        <time>2018-09-02T14:42:28 02:00</time>
      </trkpt>
      <trkpt lat="44.21197" lon="5.03578">
        <ele>376</ele>
        <time>2018-09-02T14:42:33 02:00</time>
      </trkpt>
      <trkpt lat="44.21218" lon="5.03588">
        <ele>373</ele>
        <time>2018-09-02T14:42:38 02:00</time>
      </trkpt>
      <trkpt lat="44.21236" lon="5.03584">
        <ele>371</ele>
        <time>2018-09-02T14:42:43 02:00</time>
      </trkpt>
      <trkpt lat="44.21263" lon="5.0356">
        <ele>369</ele>
        <time>2018-09-02T14:42:48 02:00</time>
      </trkpt>
      <trkpt lat="44.21296" lon="5.03525">
        <ele>366</ele>
        <time>2018-09-02T14:42:53 02:00</time>
      </trkpt>
      <trkpt lat="44.21303" lon="5.03509">
        <ele>366</ele>
        <time>2018-09-02T14:42:58 02:00</time>
      </trkpt>
      <trkpt lat="44.21319" lon="5.03491">
        <ele>363</ele>
        <time>2018-09-02T14:43:03 02:00</time>
      </trkpt>
      <trkpt lat="44.21362" lon="5.03442">
        <ele>359</ele>
        <time>2018-09-02T14:43:08 02:00</time>
      </trkpt>
      <trkpt lat="44.21388" lon="5.03407">
        <ele>357</ele>
        <time>2018-09-02T14:43:13 02:00</time>
      </trkpt>
      <trkpt lat="44.21436" lon="5.03373">
        <ele>353</ele>
        <time>2018-09-02T14:43:18 02:00</time>
      </trkpt>
      <trkpt lat="44.21466" lon="5.03357">
        <ele>349</ele>
        <time>2018-09-02T14:43:23 02:00</time>
      </trkpt>
      <trkpt lat="44.21492" lon="5.03358">
        <ele>346</ele>
        <time>2018-09-02T14:43:28 02:00</time>
      </trkpt>
      <trkpt lat="44.21509" lon="5.0338">
        <ele>344</ele>
        <time>2018-09-02T14:43:33 02:00</time>
      </trkpt>
      <trkpt lat="44.21531" lon="5.03378">
        <ele>340</ele>
        <time>2018-09-02T14:43:38 02:00</time>
      </trkpt>
      <trkpt lat="44.21562" lon="5.03354">
        <ele>334</ele>
        <time>2018-09-02T14:43:43 02:00</time>
      </trkpt>
      <trkpt lat="44.21568" lon="5.03346">
        <ele>333</ele>
        <time>2018-09-02T14:43:48 02:00</time>
      </trkpt>
      <trkpt lat="44.21557" lon="5.03328">
        <ele>334</ele>
        <time>2018-09-02T14:43:53 02:00</time>
      </trkpt>
      <trkpt lat="44.21532" lon="5.03293">
        <ele>333</ele>
        <time>2018-09-02T14:43:58 02:00</time>
      </trkpt>
      <trkpt lat="44.21521" lon="5.0328">
        <ele>333</ele>
        <time>2018-09-02T14:44:03 02:00</time>
      </trkpt>
      <trkpt lat="44.21494" lon="5.03254">
        <ele>333</ele>
        <time>2018-09-02T14:44:08 02:00</time>
      </trkpt>
      <trkpt lat="44.21476" lon="5.03235">
        <ele>332</ele>
        <time>2018-09-02T14:44:13 02:00</time>
      </trkpt>
      <trkpt lat="44.21472" lon="5.03232">
        <ele>332</ele>
        <time>2018-09-02T14:44:18 02:00</time>
      </trkpt>
      <trkpt lat="44.21469" lon="5.03219">
        <ele>330</ele>
        <time>2018-09-02T14:44:23 02:00</time>
      </trkpt>
      <trkpt lat="44.21469" lon="5.0321">
        <ele>329</ele>
        <time>2018-09-02T14:44:28 02:00</time>
      </trkpt>
      <trkpt lat="44.21476" lon="5.03192">
        <ele>326</ele>
        <time>2018-09-02T14:44:33 02:00</time>
      </trkpt>
      <trkpt lat="44.21497" lon="5.03169">
        <ele>321</ele>
        <time>2018-09-02T14:44:38 02:00</time>
      </trkpt>
      <trkpt lat="44.21497" lon="5.03154">
        <ele>319</ele>
        <time>2018-09-02T14:44:43 02:00</time>
      </trkpt>
      <trkpt lat="44.21487" lon="5.03143">
        <ele>318</ele>
        <time>2018-09-02T14:44:48 02:00</time>
      </trkpt>
      <trkpt lat="44.21462" lon="5.03118">
        <ele>316</ele>
        <time>2018-09-02T14:44:53 02:00</time>
      </trkpt>
      <trkpt lat="44.21444" lon="5.03102">
        <ele>314</ele>
        <time>2018-09-02T14:44:58 02:00</time>
      </trkpt>
      <trkpt lat="44.2143" lon="5.03091">
        <ele>313</ele>
        <time>2018-09-02T14:45:03 02:00</time>
      </trkpt>
      <trkpt lat="44.21381" lon="5.03057">
        <ele>313</ele>
        <time>2018-09-02T14:45:08 02:00</time>
      </trkpt>
      <trkpt lat="44.21357" lon="5.03044">
        <ele>311</ele>
        <time>2018-09-02T14:45:13 02:00</time>
      </trkpt>
      <trkpt lat="44.21342" lon="5.03037">
        <ele>310</ele>
        <time>2018-09-02T14:45:18 02:00</time>
      </trkpt>
      <trkpt lat="44.21319" lon="5.03033">
        <ele>308</ele>
        <time>2018-09-02T14:45:23 02:00</time>
      </trkpt>
      <trkpt lat="44.21289" lon="5.03026">
        <ele>305</ele>
        <time>2018-09-02T14:45:28 02:00</time>
      </trkpt>
      <trkpt lat="44.21268" lon="5.03024">
        <ele>303</ele>
        <time>2018-09-02T14:45:33 02:00</time>
      </trkpt>
      <trkpt lat="44.21248" lon="5.0301">
        <ele>298</ele>
        <time>2018-09-02T14:45:38 02:00</time>
      </trkpt>
      <trkpt lat="44.21226" lon="5.02994">
        <ele>295</ele>
        <time>2018-09-02T14:45:43 02:00</time>
      </trkpt>
      <trkpt lat="44.21201" lon="5.02985">
        <ele>294</ele>
        <time>2018-09-02T14:45:48 02:00</time>
      </trkpt>
      <trkpt lat="44.21166" lon="5.02975">
        <ele>292</ele>
        <time>2018-09-02T14:45:53 02:00</time>
      </trkpt>
      <trkpt lat="44.21155" lon="5.02973">
        <ele>291</ele>
        <time>2018-09-02T14:45:58 02:00</time>
      </trkpt>
      <trkpt lat="44.2113" lon="5.02978">
        <ele>289</ele>
        <time>2018-09-02T14:46:03 02:00</time>
      </trkpt>
      <trkpt lat="44.21091" lon="5.02979">
        <ele>287</ele>
        <time>2018-09-02T14:46:08 02:00</time>
      </trkpt>
      <trkpt lat="44.21056" lon="5.02963">
        <ele>286</ele>
        <time>2018-09-02T14:46:13 02:00</time>
      </trkpt>
      <trkpt lat="44.21023" lon="5.02943">
        <ele>283</ele>
        <time>2018-09-02T14:46:18 02:00</time>
      </trkpt>
      <trkpt lat="44.20997" lon="5.02941">
        <ele>282</ele>
        <time>2018-09-02T14:46:23 02:00</time>
      </trkpt>
      <trkpt lat="44.20962" lon="5.02935">
        <ele>281</ele>
        <time>2018-09-02T14:46:28 02:00</time>
      </trkpt>
      <trkpt lat="44.20928" lon="5.02928">
        <ele>279</ele>
        <time>2018-09-02T14:46:33 02:00</time>
      </trkpt>
      <trkpt lat="44.209" lon="5.02914">
        <ele>276</ele>
        <time>2018-09-02T14:46:38 02:00</time>
      </trkpt>
      <trkpt lat="44.20874" lon="5.02901">
        <ele>273</ele>
        <time>2018-09-02T14:46:43 02:00</time>
      </trkpt>
      <trkpt lat="44.2087" lon="5.02867">
        <ele>271</ele>
        <time>2018-09-02T14:46:48 02:00</time>
      </trkpt>
      <trkpt lat="44.20858" lon="5.02857">
        <ele>269</ele>
        <time>2018-09-02T14:46:53 02:00</time>
      </trkpt>
      <trkpt lat="44.2085" lon="5.02839">
        <ele>266</ele>
        <time>2018-09-02T14:46:58 02:00</time>
      </trkpt>
      <trkpt lat="44.20843" lon="5.028">
        <ele>263</ele>
        <time>2018-09-02T14:47:03 02:00</time>
      </trkpt>
      <trkpt lat="44.20848" lon="5.02782">
        <ele>264</ele>
        <time>2018-09-02T14:47:08 02:00</time>
      </trkpt>
      <trkpt lat="44.20856" lon="5.02766">
        <ele>266</ele>
        <time>2018-09-02T14:47:13 02:00</time>
      </trkpt>
      <trkpt lat="44.20859" lon="5.02752">
        <ele>267</ele>
        <time>2018-09-02T14:47:18 02:00</time>
      </trkpt>
      <trkpt lat="44.20858" lon="5.02729">
        <ele>268</ele>
        <time>2018-09-02T14:47:23 02:00</time>
      </trkpt>
      <trkpt lat="44.20837" lon="5.02681">
        <ele>262</ele>
        <time>2018-09-02T14:47:28 02:00</time>
      </trkpt>
      <trkpt lat="44.20833" lon="5.02624">
        <ele>261</ele>
        <time>2018-09-02T14:47:33 02:00</time>
      </trkpt>
      <trkpt lat="44.20824" lon="5.02536">
        <ele>262</ele>
        <time>2018-09-02T14:47:38 02:00</time>
      </trkpt>
      <trkpt lat="44.20815" lon="5.02493">
        <ele>262</ele>
        <time>2018-09-02T14:47:43 02:00</time>
      </trkpt>
      <trkpt lat="44.2081" lon="5.02475">
        <ele>263</ele>
        <time>2018-09-02T14:47:48 02:00</time>
      </trkpt>
      <trkpt lat="44.20798" lon="5.02424">
        <ele>262</ele>
        <time>2018-09-02T14:47:53 02:00</time>
      </trkpt>
    </trkseg>
  </trk>
</gpx>